createdAt,value
2023-01-13T00:00:20.225Z,5.34
2023-01-13T00:05:46.990Z,5.32
2023-01-13T00:10:55.186Z,5.32
2023-01-13T00:16:05.040Z,5.33
2023-01-13T00:21:17.183Z,5.33
2023-01-13T00:26:27.783Z,5.35
2023-01-13T00:31:36.469Z,5.35
2023-01-13T00:36:43.067Z,5.36
2023-01-13T00:42:08.509Z,5.35
2023-01-13T00:47:15.086Z,5.36
2023-01-13T00:52:21.659Z,5.36
2023-01-13T00:57:29.633Z,5.36
2023-01-13T01:02:37.285Z,5.36
2023-01-13T01:07:44.315Z,5.34
2023-01-13T01:12:53.025Z,5.31
2023-01-13T01:17:59.405Z,5.27
2023-01-13T01:23:05.910Z,5.29
2023-01-13T01:28:13.711Z,5.31
2023-01-13T01:33:20.815Z,5.31
2023-01-13T01:38:27.885Z,5.32
2023-01-13T01:44:03.873Z,5.33
2023-01-13T01:49:17.740Z,5.31
2023-01-13T01:54:29.203Z,5.29
2023-01-13T01:59:40.024Z,5.30
2023-01-13T02:04:51.954Z,5.29
2023-01-13T02:10:03.107Z,5.31
2023-01-13T02:15:15.016Z,5.34
2023-01-13T02:21:04.180Z,5.34
2023-01-13T02:27:08.764Z,5.36
2023-01-13T02:32:27.798Z,5.36
2023-01-13T02:37:39.462Z,5.38
2023-01-13T02:43:12.251Z,5.40
2023-01-13T02:48:25.915Z,5.39
2023-01-13T02:53:37.798Z,5.37
2023-01-13T02:58:47.435Z,5.37
2023-01-13T03:03:55.125Z,5.39
2023-01-13T03:09:10.379Z,5.39
2023-01-13T03:14:35.103Z,5.37
2023-01-13T03:19:52.279Z,5.37
2023-01-13T03:25:08.818Z,5.40
2023-01-13T03:30:21.153Z,5.40
2023-01-13T03:35:34.369Z,5.42
2023-01-13T03:40:46.069Z,5.41
2023-01-13T03:45:58.265Z,5.42
2023-01-13T03:51:13.322Z,5.43
2023-01-13T03:56:27.509Z,5.42
2023-01-13T04:01:44.158Z,5.43
2023-01-13T04:06:58.121Z,5.45
2023-01-13T04:12:13.949Z,5.46
2023-01-13T04:17:21.280Z,5.47
2023-01-13T04:22:29.137Z,5.47
2023-01-13T04:27:37.016Z,5.45
2023-01-13T04:32:43.341Z,5.46
2023-01-13T04:37:51.249Z,5.48
2023-01-13T04:42:58.168Z,5.51
2023-01-13T04:48:05.565Z,5.51
2023-01-13T04:53:13.697Z,5.52
2023-01-13T04:58:20.046Z,5.51
2023-01-13T05:03:27.121Z,5.52
2023-01-13T05:08:35.222Z,5.52
2023-01-13T05:14:10.106Z,5.52
2023-01-13T05:19:16.355Z,5.53
2023-01-13T05:24:41.390Z,5.53
2023-01-13T05:29:50.498Z,5.52
2023-01-13T05:34:57.332Z,5.53
2023-01-13T05:40:23.496Z,5.51
2023-01-13T05:45:32.145Z,5.53
2023-01-13T05:50:38.648Z,5.53
2023-01-13T05:55:47.311Z,5.55
2023-01-13T06:00:54.760Z,5.55
2023-01-13T06:06:04.517Z,5.57
2023-01-13T06:11:12.976Z,5.57
2023-01-13T06:16:19.734Z,5.55
2023-01-13T06:21:26.393Z,5.56
2023-01-13T06:26:39.034Z,5.57
2023-01-13T06:31:45.985Z,5.58
2023-01-13T06:36:57.141Z,5.58
2023-01-13T06:42:23.752Z,5.60
2023-01-13T06:47:30.255Z,5.63
2023-01-13T06:52:36.481Z,5.64
2023-01-13T06:57:53.797Z,5.66
2023-01-13T07:03:12.569Z,5.66
2023-01-13T07:08:19.085Z,5.65
2023-01-13T07:13:44.328Z,5.65
2023-01-13T07:18:53.685Z,5.65
2023-01-13T07:24:00.457Z,5.66
2023-01-13T07:29:08.697Z,5.68
2023-01-13T07:34:15.453Z,5.68
2023-01-13T07:39:22.019Z,5.68
2023-01-13T07:44:30.063Z,5.72
2023-01-13T07:49:36.272Z,5.73
2023-01-13T07:54:42.617Z,5.78
2023-01-13T07:59:50.372Z,5.81
2023-01-13T08:04:56.738Z,5.83
2023-01-13T08:10:03.314Z,5.84
2023-01-13T08:15:13.053Z,5.85
2023-01-13T08:20:19.625Z,5.86
2023-01-13T08:25:26.666Z,5.89
2023-01-13T08:30:34.820Z,5.89
2023-01-13T08:35:42.485Z,5.90
2023-01-13T08:40:49.114Z,5.93
2023-01-13T08:46:05.002Z,6.00
2023-01-13T08:51:13.042Z,6.02
2023-01-13T08:56:19.734Z,6.09
2023-01-13T09:01:28.424Z,6.12
2023-01-13T09:06:35.191Z,6.13
2023-01-13T09:12:02.406Z,6.13
2023-01-13T09:17:10.615Z,6.19
2023-01-13T09:22:19.611Z,6.19
2023-01-13T09:27:25.818Z,6.23
2023-01-13T09:32:33.586Z,6.29
2023-01-13T09:37:42.898Z,6.27
2023-01-13T09:43:13.534Z,6.27
2023-01-13T09:48:28.563Z,6.26
2023-01-13T09:53:49.800Z,6.28
2023-01-13T09:58:56.375Z,6.29
2023-01-13T10:04:11.836Z,6.29
2023-01-13T10:09:24.591Z,6.33
2023-01-13T10:14:43.023Z,6.34
2023-01-13T10:19:58.278Z,6.40
2023-01-13T10:25:22.407Z,6.44
2023-01-13T10:30:37.996Z,6.48
2023-01-13T10:35:56.856Z,6.55
2023-01-13T10:41:07.839Z,6.58
2023-01-13T10:46:17.062Z,6.61
2023-01-13T10:51:27.816Z,6.64
2023-01-13T10:56:35.880Z,6.69
2023-01-13T11:01:45.385Z,6.70
2023-01-13T11:06:53.352Z,6.75
2023-01-13T11:12:00.856Z,6.78
2023-01-13T11:17:40.877Z,6.80
2023-01-13T11:22:51.676Z,6.84
2023-01-13T11:28:04.913Z,6.85
2023-01-13T11:33:33.856Z,6.88
2023-01-13T11:38:49.710Z,6.91
2023-01-13T11:44:05.876Z,6.98
2023-01-13T11:49:22.333Z,7.05
2023-01-13T11:54:52.663Z,7.12
2023-01-13T12:00:24.931Z,7.11
2023-01-13T12:05:38.472Z,7.14
2023-01-13T12:11:03.694Z,7.20
2023-01-13T12:16:24.972Z,7.24
2023-01-13T12:21:35.561Z,7.27
2023-01-13T12:26:50.630Z,7.30
2023-01-13T12:31:57.384Z,7.36
2023-01-13T12:37:13.842Z,7.37
2023-01-13T12:42:46.628Z,7.36
2023-01-13T12:47:53.182Z,7.36
2023-01-13T12:53:01.246Z,7.35
2023-01-13T12:58:30.220Z,7.34
2023-01-13T13:03:39.258Z,7.34
2023-01-13T13:09:05.945Z,7.33
2023-01-13T13:14:39.873Z,7.35
2023-01-13T13:19:49.746Z,7.39
2023-01-13T13:25:26.777Z,7.41
2023-01-13T13:30:40.474Z,7.40
2023-01-13T13:36:15.561Z,7.39
2023-01-13T13:41:42.461Z,7.36
2023-01-13T13:46:51.128Z,7.37
2023-01-13T13:52:05.254Z,7.34
2023-01-13T13:57:21.859Z,7.34
2023-01-13T14:02:33.455Z,7.32
2023-01-13T14:07:51.241Z,7.31
2023-01-13T14:12:58.160Z,7.27
2023-01-13T14:18:14.061Z,7.23
2023-01-13T14:23:28.208Z,7.20
2023-01-13T14:28:39.729Z,7.16
2023-01-13T14:33:50.636Z,7.15
2023-01-13T14:39:35.572Z,7.14
2023-01-13T14:44:47.403Z,7.14
2023-01-13T14:50:03.285Z,7.12
2023-01-13T14:55:30.053Z,7.11
2023-01-13T15:00:36.923Z,7.10
2023-01-13T15:05:49.732Z,7.09
2023-01-13T15:11:01.228Z,7.08
2023-01-13T15:16:16.490Z,7.07
2023-01-13T15:21:25.367Z,7.06
2023-01-13T15:26:35.290Z,7.06
2023-01-13T15:31:41.844Z,7.06
2023-01-13T15:36:49.944Z,7.07
2023-01-13T15:42:21.993Z,7.06
2023-01-13T15:47:29.917Z,7.04
2023-01-13T15:52:37.980Z,7.03
2023-01-13T15:57:50.375Z,7.02
2023-01-13T16:02:56.945Z,7.02
2023-01-13T16:08:06.177Z,6.99
2023-01-13T16:13:12.684Z,6.99
2023-01-13T16:18:24.580Z,6.97
2023-01-13T16:23:34.141Z,6.99
2023-01-13T16:28:41.082Z,7.00
2023-01-13T16:33:47.759Z,6.98
2023-01-13T16:38:56.552Z,6.96
2023-01-13T16:44:06.335Z,6.99
2023-01-13T16:49:18.987Z,7.00
2023-01-13T16:54:27.150Z,7.00
2023-01-13T16:59:33.677Z,6.98
2023-01-13T17:04:40.440Z,6.96
2023-01-13T17:09:48.688Z,6.96
2023-01-13T17:14:55.795Z,6.96
2023-01-13T17:20:02.570Z,6.95
2023-01-13T17:25:14.381Z,6.94
2023-01-13T17:30:21.791Z,6.93
2023-01-13T17:35:30.262Z,6.92
2023-01-13T17:40:42.742Z,6.98
2023-01-13T17:45:51.147Z,6.98
2023-01-13T17:50:59.935Z,6.97
2023-01-13T17:56:15.647Z,6.99
2023-01-13T18:01:27.141Z,6.98
2023-01-13T18:06:37.217Z,7.00
2023-01-13T18:11:49.102Z,7.00
2023-01-13T18:16:57.329Z,7.04
2023-01-13T18:22:23.346Z,7.05
2023-01-13T18:27:35.474Z,7.01
2023-01-13T18:32:44.707Z,7.02
2023-01-13T18:37:53.762Z,7.03
2023-01-13T18:43:02.696Z,7.02
2023-01-13T18:48:11.286Z,7.02
2023-01-13T18:53:18.573Z,7.05
2023-01-13T18:58:31.198Z,7.07
2023-01-13T19:03:39.269Z,7.07
2023-01-13T19:08:48.914Z,7.07
2023-01-13T19:13:58.480Z,7.07
2023-01-13T19:19:07.024Z,7.07
2023-01-13T19:24:15.511Z,7.07
2023-01-13T19:29:24.486Z,7.07
2023-01-13T19:34:32.466Z,7.06
2023-01-13T19:39:42.261Z,7.06
2023-01-13T19:45:09.460Z,7.07
2023-01-13T19:50:17.664Z,7.06
2023-01-13T19:55:25.485Z,7.05
2023-01-13T20:00:37.384Z,7.04
2023-01-13T20:05:45.915Z,7.03
2023-01-13T20:11:15.824Z,7.03
2023-01-13T20:16:27.191Z,7.03
2023-01-13T20:21:38.403Z,7.01
2023-01-13T20:26:55.174Z,6.97
2023-01-13T20:32:04.860Z,6.95
2023-01-13T20:37:13.389Z,6.92
2023-01-13T20:42:43.452Z,6.89
2023-01-13T20:48:00.568Z,6.86
2023-01-13T20:53:08.521Z,6.82
2023-01-13T20:58:16.052Z,6.80
2023-01-13T21:03:25.881Z,6.78
2023-01-13T21:08:33.909Z,6.75
2023-01-13T21:13:58.036Z,6.71
2023-01-13T21:19:10.929Z,6.68
2023-01-13T21:24:19.232Z,6.66
2023-01-13T21:29:27.145Z,6.64
2023-01-13T21:34:36.210Z,6.64
2023-01-13T21:39:43.692Z,6.62
2023-01-13T21:45:08.022Z,6.59
2023-01-13T21:50:18.108Z,6.58
2023-01-13T21:55:28.872Z,6.56
2023-01-13T22:00:36.080Z,6.52
2023-01-13T22:05:44.619Z,6.51
2023-01-13T22:10:58.709Z,6.51
2023-01-13T22:16:06.800Z,6.45
2023-01-13T22:21:15.481Z,6.42
2023-01-13T22:26:22.540Z,6.38
2023-01-13T22:31:31.850Z,6.36
2023-01-13T22:36:40.775Z,6.33
2023-01-13T22:41:47.767Z,6.30
2023-01-13T22:46:54.927Z,6.21
2023-01-13T22:52:03.597Z,6.15
2023-01-13T22:57:10.543Z,6.16
2023-01-13T23:02:17.355Z,6.12
2023-01-13T23:07:25.939Z,6.08
2023-01-13T23:12:32.849Z,6.04
2023-01-13T23:17:40.793Z,6.05
2023-01-13T23:22:50.759Z,6.06
2023-01-13T23:27:57.757Z,6.03
2023-01-13T23:33:05.904Z,6.02
2023-01-13T23:38:14.409Z,6.00
2023-01-13T23:43:22.583Z,5.98
2023-01-13T23:48:29.599Z,5.96
2023-01-13T23:53:40.354Z,5.92
2023-01-13T23:58:47.999Z,5.89
